createdAt,value
2022-08-12T00:00:55.875Z,42.23
2022-08-12T00:02:17.152Z,42.26
2022-08-12T00:03:38.644Z,42.35
2022-08-12T00:05:00.403Z,42.37
2022-08-12T00:06:22.784Z,42.50
2022-08-12T00:07:44.098Z,42.50
2022-08-12T00:09:06.012Z,42.51
2022-08-12T00:10:27.844Z,42.52
2022-08-12T00:11:49.267Z,42.54
2022-08-12T00:13:13.151Z,42.58
2022-08-12T00:14:36.049Z,42.61
2022-08-12T00:16:02.980Z,42.68
2022-08-12T00:17:24.950Z,42.76
2022-08-12T00:18:47.066Z,42.84
2022-08-12T00:20:08.450Z,42.92
2022-08-12T00:21:31.667Z,42.91
2022-08-12T00:22:59.151Z,42.96
2022-08-12T00:24:18.742Z,42.99
2022-08-12T00:26:06.629Z,43.06
2022-08-12T00:27:05.605Z,43.07
2022-08-12T00:28:27.133Z,43.07
2022-08-12T00:29:48.555Z,43.01
2022-08-12T00:31:10.336Z,42.91
2022-08-12T00:32:36.193Z,42.85
2022-08-12T00:33:56.792Z,42.72
2022-08-12T00:35:20.086Z,42.66
2022-08-12T00:36:45.829Z,42.51
2022-08-12T00:38:08.858Z,42.38
2022-08-12T00:39:31.217Z,42.32
2022-08-12T00:40:58.815Z,42.28
2022-08-12T00:42:11.751Z,42.17
2022-08-12T00:43:16.083Z,42.10
2022-08-12T00:44:20.761Z,42.07
2022-08-12T00:45:26.273Z,41.97
2022-08-12T00:46:35.240Z,41.91
2022-08-12T00:47:40.204Z,41.87
2022-08-12T00:48:43.355Z,41.84
2022-08-12T00:49:50.314Z,41.84
2022-08-12T00:50:55.457Z,41.88
2022-08-12T00:52:06.694Z,41.84
2022-08-12T00:53:10.287Z,41.88
2022-08-12T00:54:13.247Z,41.88
2022-08-12T00:55:17.928Z,41.86
2022-08-12T00:56:24.050Z,41.85
2022-08-12T00:57:29.966Z,41.96
2022-08-12T00:58:34.342Z,41.94
2022-08-12T00:59:40.897Z,42.01
2022-08-12T01:00:44.673Z,42.11
2022-08-12T01:02:10.312Z,42.27
2022-08-12T01:02:57.432Z,42.23
2022-08-12T01:04:20.705Z,42.13
2022-08-12T01:05:43.810Z,42.18
2022-08-12T01:07:05.693Z,42.23
2022-08-12T01:08:27.733Z,42.06
2022-08-12T01:09:49.449Z,41.88
2022-08-12T01:11:12.819Z,41.91
2022-08-12T01:12:17.312Z,41.83
2022-08-12T01:13:21.591Z,41.84
2022-08-12T01:14:25.011Z,41.94
2022-08-12T01:15:28.323Z,41.98
2022-08-12T01:16:31.654Z,41.98
2022-08-12T01:17:34.708Z,41.94
2022-08-12T01:18:39.871Z,41.93
2022-08-12T01:19:43.258Z,41.87
2022-08-12T01:20:55.787Z,41.88
2022-08-12T01:22:15.397Z,41.88
2022-08-12T01:23:24.832Z,41.83
2022-08-12T01:25:04.482Z,41.82
2022-08-12T01:26:10.679Z,41.93
2022-08-12T01:27:15.739Z,42.06
2022-08-12T01:28:20.723Z,42.11
2022-08-12T01:29:32.832Z,42.10
2022-08-12T01:30:36.463Z,42.12
2022-08-12T01:31:42.765Z,41.69
2022-08-12T01:32:49.267Z,41.69
2022-08-12T01:33:59.188Z,42.13
2022-08-12T01:35:06.400Z,42.09
2022-08-12T01:36:11.391Z,42.09
2022-08-12T01:37:18.227Z,42.07
2022-08-12T01:38:29.798Z,42.03
2022-08-12T01:40:34.807Z,42.08
2022-08-12T01:40:47.150Z,42.12
2022-08-12T01:41:56.502Z,42.08
2022-08-12T01:43:08.012Z,42.11
2022-08-12T01:44:12.620Z,42.12
2022-08-12T01:45:22.386Z,42.05
2022-08-12T01:46:34.214Z,42.12
2022-08-12T01:47:52.648Z,42.04
2022-08-12T01:49:18.794Z,42.06
2022-08-12T01:50:36.431Z,42.03
2022-08-12T01:52:15.601Z,42.05
2022-08-12T01:52:59.888Z,42.08
2022-08-12T01:54:09.047Z,42.15
2022-08-12T01:55:15.431Z,42.15
2022-08-12T01:56:22.603Z,42.19
2022-08-12T01:57:58.194Z,42.19
2022-08-12T01:59:04.728Z,42.22
2022-08-12T02:00:13.115Z,42.31
2022-08-12T02:01:18.242Z,42.50
2022-08-12T02:02:34.432Z,42.61
2022-08-12T02:04:17.637Z,42.80
2022-08-12T02:05:51.707Z,42.98
2022-08-12T02:07:22.615Z,43.32
2022-08-12T02:09:09.930Z,43.78
2022-08-12T02:10:50.133Z,43.78
2022-08-12T02:11:53.724Z,43.64
2022-08-12T02:13:09.469Z,43.77
2022-08-12T02:14:38.522Z,43.84
2022-08-12T02:15:45.546Z,43.73
2022-08-12T02:17:10.090Z,43.70
2022-08-12T02:18:32.891Z,43.69
2022-08-12T02:20:03.053Z,43.81
2022-08-12T02:21:09.488Z,43.90
2022-08-12T02:22:36.427Z,44.00
2022-08-12T02:23:40.624Z,43.97
2022-08-12T02:24:45.917Z,43.82
2022-08-12T02:25:53.518Z,43.83
2022-08-12T02:26:57.798Z,43.79
2022-08-12T02:28:01.296Z,43.86
2022-08-12T02:29:07.600Z,43.97
2022-08-12T02:30:13.839Z,43.95
2022-08-12T02:31:16.828Z,44.06
2022-08-12T02:32:21.585Z,44.14
2022-08-12T02:33:24.975Z,44.19
2022-08-12T02:34:29.958Z,44.23
2022-08-12T02:35:35.748Z,44.35
2022-08-12T02:36:40.037Z,44.28
2022-08-12T02:37:44.854Z,44.23
2022-08-12T02:38:49.003Z,44.25
2022-08-12T02:39:55.695Z,44.38
2022-08-12T02:41:01.508Z,44.41
2022-08-12T02:42:06.456Z,44.65
2022-08-12T02:43:18.729Z,44.73
2022-08-12T02:44:24.997Z,44.85
2022-08-12T02:45:37.641Z,44.69
2022-08-12T02:46:44.082Z,44.66
2022-08-12T02:47:59.404Z,44.52
2022-08-12T02:49:07.090Z,44.33
2022-08-12T02:50:15.579Z,44.12
2022-08-12T02:51:23.018Z,43.98
2022-08-12T02:52:27.000Z,43.89
2022-08-12T02:53:31.675Z,43.87
2022-08-12T02:54:36.362Z,43.75
2022-08-12T02:55:39.451Z,43.69
2022-08-12T02:56:47.111Z,43.65
2022-08-12T02:57:50.600Z,43.68
2022-08-12T02:58:54.984Z,43.81
2022-08-12T03:00:01.248Z,43.97
2022-08-12T03:01:08.022Z,44.12
2022-08-12T03:02:13.069Z,44.03
2022-08-12T03:03:18.971Z,44.01
2022-08-12T03:04:43.850Z,43.98
2022-08-12T03:05:48.876Z,43.89
2022-08-12T03:07:10.064Z,43.84
2022-08-12T03:08:32.228Z,43.75
2022-08-12T03:09:23.287Z,43.78
2022-08-12T03:10:37.172Z,43.65
2022-08-12T03:11:44.647Z,43.59
2022-08-12T03:12:49.396Z,43.56
2022-08-12T03:13:57.386Z,43.50
2022-08-12T03:15:04.590Z,43.57
2022-08-12T03:16:08.369Z,43.65
2022-08-12T03:17:23.819Z,43.81
2022-08-12T03:18:30.676Z,43.97
2022-08-12T03:19:33.928Z,44.11
2022-08-12T03:20:39.380Z,44.15
2022-08-12T03:21:53.137Z,43.99
2022-08-12T03:22:51.435Z,44.00
2022-08-12T03:23:55.319Z,44.12
2022-08-12T03:25:01.882Z,44.08
2022-08-12T03:26:06.260Z,44.13
2022-08-12T03:27:13.224Z,44.19
2022-08-12T03:28:23.813Z,44.31
2022-08-12T03:29:26.977Z,44.33
2022-08-12T03:30:32.158Z,44.37
2022-08-12T03:31:35.196Z,44.40
2022-08-12T03:32:41.477Z,44.42
2022-08-12T03:34:00.555Z,44.48
2022-08-12T03:34:54.244Z,44.45
2022-08-12T03:35:59.982Z,44.45
2022-08-12T03:37:05.284Z,44.47
2022-08-12T03:38:11.865Z,44.56
2022-08-12T03:39:19.950Z,44.57
2022-08-12T03:40:49.900Z,44.97
2022-08-12T03:42:11.598Z,44.97
2022-08-12T03:43:36.273Z,44.99
2022-08-12T03:45:06.921Z,45.00
2022-08-12T03:46:35.052Z,45.28
2022-08-12T03:48:22.697Z,45.24
2022-08-12T03:49:44.649Z,45.30
2022-08-12T03:51:06.979Z,45.47
2022-08-12T03:52:28.424Z,45.54
2022-08-12T03:53:50.101Z,45.39
2022-08-12T03:55:11.727Z,45.32
2022-08-12T03:56:34.719Z,45.31
2022-08-12T03:57:56.163Z,45.34
2022-08-12T03:59:19.066Z,45.55
2022-08-12T04:00:24.863Z,45.59
2022-08-12T04:01:27.915Z,45.67
2022-08-12T04:02:33.380Z,45.56
2022-08-12T04:03:52.279Z,45.54
2022-08-12T04:04:56.382Z,45.57
2022-08-12T04:05:59.449Z,45.57
2022-08-12T04:07:06.934Z,45.58
2022-08-12T04:08:10.906Z,45.63
2022-08-12T04:09:16.466Z,45.61
2022-08-12T04:10:20.710Z,45.69
2022-08-12T04:11:47.184Z,45.76
2022-08-12T04:13:16.527Z,45.86
2022-08-12T04:14:20.094Z,45.84
2022-08-12T04:15:27.347Z,45.84
2022-08-12T04:16:30.979Z,45.80
2022-08-12T04:17:35.497Z,46.20
2022-08-12T04:18:39.808Z,46.20
2022-08-12T04:19:45.896Z,45.77
2022-08-12T04:20:49.471Z,45.75
2022-08-12T04:22:02.115Z,45.73
2022-08-12T04:23:00.396Z,45.77
2022-08-12T04:24:04.928Z,45.69
2022-08-12T04:25:10.345Z,45.66
2022-08-12T04:26:14.306Z,45.86
2022-08-12T04:27:17.179Z,45.93
2022-08-12T04:28:27.672Z,45.83
2022-08-12T04:30:30.427Z,45.71
2022-08-12T04:30:36.556Z,45.59
2022-08-12T04:31:43.570Z,45.51
2022-08-12T04:32:50.420Z,45.43
2022-08-12T04:33:53.619Z,45.45
2022-08-12T04:34:56.808Z,45.30
2022-08-12T04:35:59.940Z,45.21
2022-08-12T04:37:03.098Z,45.12
2022-08-12T04:38:07.166Z,44.88
2022-08-12T04:39:11.398Z,44.81
2022-08-12T04:40:16.632Z,44.71
2022-08-12T04:41:24.830Z,44.63
2022-08-12T04:42:28.115Z,44.59
2022-08-12T04:43:54.453Z,44.58
2022-08-12T04:44:36.289Z,44.63
2022-08-12T04:45:39.765Z,44.54
2022-08-12T04:46:42.831Z,44.52
2022-08-12T04:47:46.709Z,44.53
2022-08-12T04:48:50.019Z,44.49
2022-08-12T04:49:53.081Z,44.42
2022-08-12T04:50:57.384Z,44.31
2022-08-12T04:52:01.778Z,44.22
2022-08-12T04:53:06.454Z,44.20
2022-08-12T04:54:09.738Z,44.03
2022-08-12T04:55:12.813Z,43.93
2022-08-12T04:56:17.219Z,43.95
2022-08-12T04:57:20.192Z,44.00
2022-08-12T04:58:29.770Z,44.01
2022-08-12T04:59:28.321Z,44.05
2022-08-12T05:00:33.768Z,44.03
2022-08-12T05:01:36.907Z,44.08
2022-08-12T05:02:40.669Z,44.04
2022-08-12T05:03:46.207Z,43.96
2022-08-12T05:05:00.519Z,43.98
2022-08-12T05:06:02.474Z,44.04
2022-08-12T05:07:07.634Z,44.04
2022-08-12T05:08:16.569Z,44.07
2022-08-12T05:09:19.725Z,44.16
2022-08-12T05:10:33.698Z,44.32
2022-08-12T05:11:30.462Z,44.38
2022-08-12T05:12:37.157Z,44.13
2022-08-12T05:13:41.066Z,44.01
2022-08-12T05:14:44.014Z,43.82
2022-08-12T05:16:03.878Z,43.70
2022-08-12T05:16:52.887Z,43.67
2022-08-12T05:17:56.231Z,43.58
2022-08-12T05:19:01.228Z,43.42
2022-08-12T05:20:06.133Z,43.35
2022-08-12T05:21:10.655Z,43.28
2022-08-12T05:22:13.612Z,43.20
2022-08-12T05:23:19.750Z,43.06
2022-08-12T05:24:22.775Z,43.00
2022-08-12T05:25:25.874Z,42.92
2022-08-12T05:26:29.949Z,42.89
2022-08-12T05:27:34.068Z,42.91
2022-08-12T05:28:37.330Z,42.84
2022-08-12T05:30:07.867Z,42.86
2022-08-12T05:30:47.545Z,42.85
2022-08-12T05:31:52.463Z,42.95
2022-08-12T05:32:55.741Z,42.96
2022-08-12T05:34:00.722Z,43.00
2022-08-12T05:35:05.816Z,43.04
2022-08-12T05:36:14.872Z,43.08
2022-08-12T05:37:17.830Z,43.10
2022-08-12T05:38:39.419Z,43.08
2022-08-12T05:39:42.365Z,43.00
2022-08-12T05:40:45.473Z,42.96
2022-08-12T05:41:49.035Z,42.89
2022-08-12T05:42:51.995Z,42.85
2022-08-12T05:44:00.304Z,42.81
2022-08-12T05:45:03.731Z,42.81
2022-08-12T05:46:06.990Z,42.80
2022-08-12T05:47:13.668Z,42.85
2022-08-12T05:48:16.960Z,42.83
2022-08-12T05:49:20.009Z,42.81
2022-08-12T05:50:25.086Z,42.81
2022-08-12T05:51:40.502Z,42.76
2022-08-12T05:52:36.147Z,42.76
2022-08-12T05:53:40.070Z,42.67
2022-08-12T05:54:57.152Z,42.52
2022-08-12T05:55:51.844Z,42.48
2022-08-12T05:56:55.037Z,42.46
2022-08-12T05:57:58.205Z,42.37
2022-08-12T05:59:03.665Z,42.25
2022-08-12T06:00:07.409Z,42.14
2022-08-12T06:02:10.329Z,42.01
2022-08-12T06:02:17.414Z,41.95
2022-08-12T06:03:20.864Z,41.87
2022-08-12T06:04:23.871Z,41.80
2022-08-12T06:05:33.228Z,41.77
2022-08-12T06:06:40.313Z,41.71
2022-08-12T06:08:00.207Z,41.68
2022-08-12T06:08:54.225Z,41.69
2022-08-12T06:09:57.219Z,41.71
2022-08-12T06:11:02.151Z,41.74
2022-08-12T06:12:06.655Z,41.75
2022-08-12T06:13:10.010Z,41.78
2022-08-12T06:14:13.596Z,41.83
2022-08-12T06:15:20.350Z,41.85
2022-08-12T06:16:24.942Z,41.78
2022-08-12T06:17:29.723Z,41.69
2022-08-12T06:18:32.909Z,41.66
2022-08-12T06:20:28.194Z,41.65
2022-08-12T06:20:41.437Z,41.60
2022-08-12T06:21:46.307Z,41.58
2022-08-12T06:22:50.460Z,41.40
2022-08-12T06:23:55.808Z,41.28
2022-08-12T06:24:59.904Z,41.18
2022-08-12T06:26:04.411Z,41.16
2022-08-12T06:27:07.729Z,41.10
2022-08-12T06:28:17.484Z,41.03
2022-08-12T06:29:35.867Z,40.99
2022-08-12T06:30:36.884Z,40.90
2022-08-12T06:31:34.127Z,40.91
2022-08-12T06:32:42.708Z,40.96
2022-08-12T06:33:59.910Z,40.96
2022-08-12T06:35:26.534Z,41.15
2022-08-12T06:35:57.406Z,41.07
2022-08-12T06:36:58.645Z,41.09
2022-08-12T06:38:03.229Z,41.09
2022-08-12T06:39:06.095Z,41.01
2022-08-12T06:40:13.394Z,40.91
2022-08-12T06:41:24.550Z,40.91
2022-08-12T06:42:46.021Z,40.80
2022-08-12T06:44:06.055Z,40.65
2022-08-12T06:44:55.998Z,40.57
2022-08-12T06:45:59.659Z,40.58
2022-08-12T06:47:02.634Z,40.48
2022-08-12T06:48:08.941Z,40.43
2022-08-12T06:49:12.669Z,40.38
2022-08-12T06:50:15.854Z,40.34
2022-08-12T06:51:20.115Z,40.32
2022-08-12T06:52:24.304Z,40.28
2022-08-12T06:53:27.409Z,40.26
2022-08-12T06:54:32.762Z,40.07
2022-08-12T06:55:35.933Z,40.04
2022-08-12T06:58:07.954Z,40.10
2022-08-12T06:59:02.722Z,40.18
2022-08-12T07:00:08.055Z,40.28
2022-08-12T07:01:11.391Z,40.38
2022-08-12T07:02:14.568Z,40.43
2022-08-12T07:03:23.402Z,40.53
2022-08-12T07:04:40.299Z,40.63
2022-08-12T07:05:29.918Z,40.59
2022-08-12T07:06:32.893Z,40.52
2022-08-12T07:07:37.639Z,40.52
2022-08-12T07:08:43.058Z,40.57
2022-08-12T07:10:05.774Z,40.64
2022-08-12T07:10:55.950Z,40.56
2022-08-12T07:11:58.973Z,40.41
2022-08-12T07:13:02.326Z,40.36
2022-08-12T07:14:12.142Z,40.36
2022-08-12T07:15:12.677Z,40.23
2022-08-12T07:16:21.193Z,40.08
2022-08-12T07:17:24.763Z,40.02
2022-08-12T07:18:29.856Z,40.12
2022-08-12T07:19:45.139Z,40.01
2022-08-12T07:20:53.611Z,39.92
2022-08-12T07:21:57.967Z,39.92
2022-08-12T07:22:54.410Z,39.85
2022-08-12T07:23:57.524Z,39.90
2022-08-12T07:25:19.079Z,40.01
2022-08-12T07:26:23.098Z,39.92
2022-08-12T07:27:27.892Z,39.91
2022-08-12T07:28:34.919Z,40.00
2022-08-12T07:30:02.578Z,40.17
2022-08-12T07:30:45.974Z,40.14
2022-08-12T07:31:48.897Z,40.21
2022-08-12T07:32:52.002Z,40.18
2022-08-12T07:33:55.746Z,40.16
2022-08-12T07:34:58.735Z,40.17
2022-08-12T07:36:06.227Z,40.09
2022-08-12T07:37:09.402Z,39.92
2022-08-12T07:38:28.944Z,39.72
2022-08-12T07:39:29.726Z,39.62
2022-08-12T07:40:33.404Z,39.49
2022-08-12T07:41:36.267Z,39.38
2022-08-12T07:42:41.135Z,39.15
2022-08-12T07:43:50.049Z,38.80
2022-08-12T07:44:53.144Z,38.68
2022-08-12T07:45:56.538Z,38.61
2022-08-12T07:46:59.663Z,38.71
2022-08-12T07:48:03.598Z,38.71
2022-08-12T07:49:09.658Z,38.73
2022-08-12T07:50:18.948Z,38.75
2022-08-12T07:51:24.730Z,38.72
2022-08-12T07:52:28.566Z,38.79
2022-08-12T07:53:32.078Z,38.79
2022-08-12T07:54:35.873Z,38.75
2022-08-12T07:55:38.930Z,38.74
2022-08-12T07:56:42.734Z,38.74
2022-08-12T07:57:56.838Z,38.77
2022-08-12T07:59:00.511Z,38.98
2022-08-12T08:00:06.131Z,39.12
2022-08-12T08:01:15.114Z,39.09
2022-08-12T08:02:18.623Z,39.04
2022-08-12T08:03:25.262Z,38.55
2022-08-12T08:04:46.589Z,38.08
2022-08-12T08:05:49.593Z,37.78
2022-08-12T08:06:53.593Z,37.18
2022-08-12T08:07:58.575Z,36.71
2022-08-12T08:09:04.579Z,36.25
2022-08-12T08:10:10.320Z,35.90
2022-08-12T08:11:31.926Z,35.72
2022-08-12T08:12:53.034Z,35.46
2022-08-12T08:13:56.159Z,34.89
2022-08-12T08:14:59.248Z,34.38
2022-08-12T08:16:04.436Z,34.02
2022-08-12T08:17:09.361Z,33.77
2022-08-12T08:18:26.259Z,33.58
2022-08-12T08:19:25.422Z,33.39
2022-08-12T08:20:33.293Z,33.23
2022-08-12T08:21:36.579Z,33.17
2022-08-12T08:22:50.301Z,33.15
2022-08-12T08:24:05.389Z,33.23
2022-08-12T08:25:36.335Z,33.09
2022-08-12T08:26:15.891Z,32.93
2022-08-12T08:27:20.679Z,32.89
2022-08-12T08:28:23.744Z,32.92
2022-08-12T08:29:28.624Z,32.91
2022-08-12T08:30:32.830Z,32.74
2022-08-12T08:31:36.044Z,32.78
2022-08-12T08:32:42.081Z,32.73
2022-08-12T08:34:05.437Z,32.65
2022-08-12T08:34:54.572Z,32.54
2022-08-12T08:35:54.993Z,32.39
2022-08-12T08:36:58.334Z,32.23
2022-08-12T08:38:10.290Z,32.33
2022-08-12T08:39:20.578Z,32.33
2022-08-12T08:40:42.820Z,32.29
2022-08-12T08:42:17.698Z,32.29
2022-08-12T08:43:09.355Z,32.36
2022-08-12T08:44:12.349Z,32.42
2022-08-12T08:45:15.494Z,32.34
2022-08-12T08:46:19.772Z,32.32
2022-08-12T08:47:22.797Z,32.36
2022-08-12T08:48:26.067Z,32.38
2022-08-12T08:49:28.950Z,32.38
2022-08-12T08:50:32.922Z,32.54
2022-08-12T08:51:36.485Z,32.52
2022-08-12T08:52:40.998Z,32.62
2022-08-12T08:53:44.246Z,32.68
2022-08-12T08:54:50.121Z,32.52
2022-08-12T08:56:04.777Z,32.43
2022-08-12T08:57:00.916Z,32.34
2022-08-12T08:58:04.011Z,32.48
2022-08-12T08:59:07.074Z,32.43
2022-08-12T09:00:15.895Z,32.44
2022-08-12T09:01:20.881Z,32.50
2022-08-12T09:02:23.853Z,32.53
2022-08-12T09:04:21.339Z,32.54
2022-08-12T09:05:12.545Z,32.79
2022-08-12T09:06:02.524Z,32.78
2022-08-12T09:06:53.438Z,32.66
2022-08-12T09:07:58.792Z,32.45
2022-08-12T09:08:54.333Z,32.43
2022-08-12T09:10:02.547Z,32.40
2022-08-12T09:11:04.669Z,32.36
2022-08-12T09:12:27.935Z,32.31
2022-08-12T09:14:10.927Z,32.25
2022-08-12T09:14:43.124Z,31.98
2022-08-12T09:15:55.923Z,31.75
2022-08-12T09:16:53.001Z,31.77
2022-08-12T09:17:59.118Z,31.70
2022-08-12T09:19:03.004Z,31.65
2022-08-12T09:20:08.882Z,31.77
2022-08-12T09:21:13.352Z,31.87
2022-08-12T09:22:18.475Z,31.71
2022-08-12T09:24:27.660Z,31.58
2022-08-12T09:25:35.012Z,31.39
2022-08-12T09:28:04.089Z,31.12
2022-08-12T09:28:50.223Z,31.01
2022-08-12T09:30:11.537Z,30.86
2022-08-12T09:31:00.363Z,30.74
2022-08-12T09:32:08.438Z,30.64
2022-08-12T09:33:19.365Z,30.54
2022-08-12T09:34:27.571Z,30.45
2022-08-12T09:35:28.513Z,30.46
2022-08-12T09:36:57.859Z,30.32
2022-08-12T09:37:55.225Z,30.08
2022-08-12T09:38:59.130Z,30.09
2022-08-12T09:40:08.125Z,30.63
2022-08-12T09:41:02.519Z,30.75
2022-08-12T09:42:40.312Z,30.98
2022-08-12T09:43:53.369Z,30.74
2022-08-12T09:45:17.992Z,30.26
2022-08-12T09:46:21.501Z,30.22
2022-08-12T09:47:16.151Z,30.22
2022-08-12T09:48:20.033Z,30.07
2022-08-12T09:49:24.384Z,30.01
2022-08-12T09:50:30.962Z,29.91
2022-08-12T09:51:38.072Z,29.90
2022-08-12T09:52:39.582Z,30.11
2022-08-12T09:53:45.775Z,30.13
2022-08-12T09:54:50.155Z,30.15
2022-08-12T09:56:05.696Z,30.27
2022-08-12T09:58:08.209Z,30.36
2022-08-12T09:58:57.595Z,30.34
2022-08-12T09:59:14.042Z,30.24
2022-08-12T10:00:28.980Z,30.17
2022-08-12T10:01:34.959Z,30.13
2022-08-12T10:02:52.743Z,30.08
2022-08-12T10:04:03.722Z,30.03
2022-08-12T10:04:51.759Z,29.98
2022-08-12T10:06:20.595Z,30.34
2022-08-12T10:06:58.778Z,30.61
2022-08-12T10:08:05.112Z,30.87
2022-08-12T10:09:09.405Z,30.88
2022-08-12T10:10:24.449Z,31.16
2022-08-12T10:12:10.442Z,31.43
2022-08-12T10:13:07.708Z,31.68
2022-08-12T10:14:04.817Z,31.89
2022-08-12T10:15:08.815Z,31.76
2022-08-12T10:16:22.330Z,32.06
2022-08-12T10:17:23.528Z,32.12
2022-08-12T10:18:28.487Z,32.10
2022-08-12T10:19:36.104Z,31.98
2022-08-12T10:20:37.190Z,31.84
2022-08-12T10:21:40.968Z,31.49
2022-08-12T10:22:57.586Z,31.23
2022-08-12T10:24:02.524Z,31.12
2022-08-12T10:25:23.886Z,31.04
2022-08-12T10:26:47.750Z,30.96
2022-08-12T10:28:21.936Z,31.15
2022-08-12T10:30:38.974Z,31.23
2022-08-12T10:30:43.919Z,31.42
2022-08-12T10:32:19.799Z,31.71
2022-08-12T10:32:59.194Z,32.01
2022-08-12T10:34:23.544Z,31.81
2022-08-12T10:35:10.130Z,31.88
2022-08-12T10:36:13.354Z,32.04
2022-08-12T10:38:05.695Z,32.04
2022-08-12T10:38:37.290Z,32.20
2022-08-12T10:40:00.985Z,31.92
2022-08-12T10:40:39.196Z,31.70
2022-08-12T10:42:00.849Z,31.67
2022-08-12T10:43:22.056Z,31.92
2022-08-12T10:44:25.148Z,31.59
2022-08-12T10:45:30.709Z,30.65
2022-08-12T10:46:35.191Z,30.65
2022-08-12T10:48:07.028Z,30.67
2022-08-12T10:48:57.989Z,30.58
2022-08-12T10:50:10.510Z,30.70
2022-08-12T10:51:51.476Z,30.81
2022-08-12T10:52:34.597Z,30.72
2022-08-12T10:53:19.728Z,30.82
2022-08-12T10:54:22.241Z,30.83
2022-08-12T10:55:28.146Z,31.07
2022-08-12T10:56:34.712Z,31.17
2022-08-12T10:58:15.795Z,31.32
2022-08-12T10:58:45.980Z,31.54
2022-08-12T11:00:34.111Z,31.67
2022-08-12T11:00:55.288Z,31.68
2022-08-12T11:04:26.951Z,31.90
2022-08-12T11:04:27.481Z,31.90
2022-08-12T11:04:28.132Z,31.88
2022-08-12T11:07:02.905Z,31.82
2022-08-12T11:07:08.938Z,31.74
2022-08-12T11:08:37.805Z,31.76
2022-08-12T11:08:43.517Z,31.97
2022-08-12T11:10:00.444Z,31.96
2022-08-12T11:10:50.828Z,32.09
2022-08-12T11:12:35.471Z,32.12
2022-08-12T11:13:00.813Z,32.41
2022-08-12T11:14:06.365Z,32.60
2022-08-12T11:15:18.696Z,32.72
2022-08-12T11:16:19.569Z,32.98
2022-08-12T11:17:43.198Z,33.01
2022-08-12T11:18:27.510Z,33.01
2022-08-12T11:19:32.403Z,33.24
2022-08-12T11:20:36.347Z,33.26
2022-08-12T11:21:56.734Z,33.17
2022-08-12T11:22:59.464Z,33.30
2022-08-12T11:24:03.287Z,33.37
2022-08-12T11:25:10.470Z,33.71
2022-08-12T11:26:14.777Z,33.69
2022-08-12T11:27:18.269Z,33.65
2022-08-12T11:28:34.139Z,33.85
2022-08-12T11:29:27.941Z,33.72
2022-08-12T11:30:33.260Z,33.79
2022-08-12T11:31:55.895Z,33.88
2022-08-12T11:32:41.111Z,33.92
2022-08-12T11:34:04.876Z,33.88
2022-08-12T11:34:52.396Z,34.03
2022-08-12T11:35:59.200Z,34.19
2022-08-12T11:37:06.622Z,34.35
2022-08-12T11:38:11.444Z,34.44
2022-08-12T11:39:14.473Z,34.56
2022-08-12T11:40:19.543Z,34.71
2022-08-12T11:41:31.651Z,34.75
2022-08-12T11:42:32.529Z,34.78
2022-08-12T11:43:33.356Z,34.78
2022-08-12T11:44:43.209Z,34.91
2022-08-12T11:45:46.934Z,35.04
2022-08-12T11:46:50.961Z,35.20
2022-08-12T11:47:55.696Z,35.14
2022-08-12T11:48:58.783Z,35.24
2022-08-12T11:50:01.848Z,35.34
2022-08-12T11:51:08.028Z,35.23
2022-08-12T11:52:27.890Z,35.31
2022-08-12T11:53:59.497Z,35.54
2022-08-12T11:54:22.750Z,35.60
2022-08-12T11:55:27.571Z,35.74
2022-08-12T11:56:38.929Z,35.93
2022-08-12T11:58:14.667Z,36.25
2022-08-12T12:02:03.412Z,36.37
2022-08-12T12:02:18.817Z,36.34
2022-08-12T12:03:19.518Z,36.45
2022-08-12T12:04:29.401Z,36.60
2022-08-12T12:05:41.539Z,36.73
2022-08-12T12:06:34.985Z,36.89
2022-08-12T12:08:40.503Z,37.08
2022-08-12T12:08:50.862Z,37.18
2022-08-12T12:09:53.579Z,37.22
2022-08-12T12:10:56.383Z,36.99
2022-08-12T12:12:00.354Z,36.87
2022-08-12T12:13:04.495Z,36.88
2022-08-12T12:14:11.292Z,36.97
2022-08-12T12:15:14.374Z,36.92
2022-08-12T12:16:19.739Z,36.98
2022-08-12T12:17:26.289Z,36.97
2022-08-12T12:18:32.734Z,36.99
2022-08-12T12:19:45.283Z,37.10
2022-08-12T12:20:41.008Z,37.18
2022-08-12T12:21:47.921Z,36.92
2022-08-12T12:22:49.107Z,36.89
2022-08-12T12:23:52.969Z,36.72
2022-08-12T12:24:58.537Z,36.46
2022-08-12T12:26:08.192Z,36.21
2022-08-12T12:27:10.692Z,35.92
2022-08-12T12:28:37.809Z,35.62
2022-08-12T12:30:17.688Z,35.32
2022-08-12T12:30:29.982Z,35.06
2022-08-12T12:32:11.525Z,34.94
2022-08-12T12:32:34.397Z,35.00
2022-08-12T12:33:57.584Z,34.91
2022-08-12T12:35:13.181Z,34.99
2022-08-12T12:36:06.473Z,34.94
2022-08-12T12:36:54.964Z,35.12
2022-08-12T12:38:05.241Z,35.38
2022-08-12T12:39:06.447Z,35.37
2022-08-12T12:40:11.323Z,35.80
2022-08-12T12:41:16.813Z,35.71
2022-08-12T12:42:45.249Z,35.68
2022-08-12T12:43:28.881Z,35.61
2022-08-12T12:44:38.485Z,35.76
2022-08-12T12:45:36.690Z,35.98
2022-08-12T12:46:39.705Z,36.29
2022-08-12T12:47:56.467Z,36.47
2022-08-12T12:48:59.739Z,36.55
2022-08-12T12:50:02.968Z,36.61
2022-08-12T12:51:48.441Z,36.69
2022-08-12T12:52:21.823Z,36.86
2022-08-12T12:54:06.067Z,37.00
2022-08-12T12:54:31.551Z,37.10
2022-08-12T12:55:37.564Z,36.98
2022-08-12T12:56:41.587Z,36.92
2022-08-12T12:58:00.437Z,36.93
2022-08-12T12:58:51.410Z,36.72
2022-08-12T13:00:13.048Z,36.72
2022-08-12T13:01:28.048Z,36.86
2022-08-12T13:02:31.755Z,36.70
2022-08-12T13:03:35.378Z,36.71
2022-08-12T13:04:37.304Z,36.69
2022-08-12T13:05:43.310Z,36.68
2022-08-12T13:06:48.561Z,36.64
2022-08-12T13:07:55.153Z,36.60
2022-08-12T13:09:02.439Z,36.63
2022-08-12T13:10:06.580Z,36.62
2022-08-12T13:11:10.918Z,36.70
2022-08-12T13:12:15.927Z,36.81
2022-08-12T13:14:09.060Z,36.82
2022-08-12T13:14:29.657Z,36.76
2022-08-12T13:15:43.129Z,36.66
2022-08-12T13:16:37.664Z,36.69
2022-08-12T13:18:02.874Z,36.55
2022-08-12T13:18:51.914Z,36.84
2022-08-12T13:19:55.412Z,37.00
2022-08-12T13:20:59.381Z,37.03
2022-08-12T13:22:18.439Z,37.10
2022-08-12T13:23:37.109Z,37.21
2022-08-12T13:24:27.017Z,37.31
2022-08-12T13:25:32.464Z,37.35
2022-08-12T13:26:37.566Z,37.28
2022-08-12T13:27:46.251Z,37.16
2022-08-12T13:28:53.331Z,37.20
2022-08-12T13:30:00.842Z,37.21
2022-08-12T13:31:02.507Z,37.28
2022-08-12T13:32:19.298Z,37.35
2022-08-12T13:33:17.724Z,37.39
2022-08-12T13:34:33.905Z,37.46
2022-08-12T13:36:02.877Z,37.50
2022-08-12T13:36:28.000Z,37.49
2022-08-12T13:37:43.967Z,37.60
2022-08-12T13:38:41.653Z,37.71
2022-08-12T13:39:46.317Z,37.69
2022-08-12T13:40:49.895Z,37.76
2022-08-12T13:41:52.991Z,37.82
2022-08-12T13:42:58.215Z,37.65
2022-08-12T13:44:04.127Z,37.53
2022-08-12T13:45:08.698Z,37.32
2022-08-12T13:46:15.742Z,37.26
2022-08-12T13:47:21.438Z,37.27
2022-08-12T13:48:28.857Z,37.30
2022-08-12T13:49:53.918Z,37.31
2022-08-12T13:50:40.012Z,37.35
2022-08-12T13:51:45.537Z,37.30
2022-08-12T13:52:49.861Z,37.42
2022-08-12T13:53:58.947Z,37.51
2022-08-12T13:54:58.398Z,37.47
2022-08-12T13:56:02.319Z,37.48
2022-08-12T13:57:10.924Z,37.47
2022-08-12T13:58:17.364Z,37.57
2022-08-12T13:59:24.863Z,37.65
2022-08-12T14:00:33.888Z,37.50
2022-08-12T14:01:33.291Z,37.45
2022-08-12T14:02:37.752Z,37.51
2022-08-12T14:03:51.441Z,37.74
2022-08-12T14:04:56.413Z,37.79
2022-08-12T14:05:55.418Z,37.84
2022-08-12T14:06:57.681Z,37.78
2022-08-12T14:08:05.441Z,37.79
2022-08-12T14:09:17.885Z,37.82
2022-08-12T14:10:36.097Z,37.75
2022-08-12T14:11:39.358Z,37.93
2022-08-12T14:12:54.019Z,37.95
2022-08-12T14:14:06.382Z,37.87
2022-08-12T14:14:57.371Z,37.93
2022-08-12T14:16:01.826Z,37.75
2022-08-12T14:17:09.710Z,37.34
2022-08-12T14:18:22.339Z,37.03
2022-08-12T14:19:27.125Z,36.85
2022-08-12T14:20:32.914Z,36.69
2022-08-12T14:22:00.778Z,36.55
2022-08-12T14:22:49.745Z,36.39
2022-08-12T14:24:05.541Z,36.43
2022-08-12T14:24:55.179Z,36.41
2022-08-12T14:26:00.037Z,36.25
2022-08-12T14:27:09.120Z,36.23
2022-08-12T14:28:18.164Z,36.19
2022-08-12T14:29:38.162Z,36.17
2022-08-12T14:30:29.267Z,36.28
2022-08-12T14:31:32.922Z,36.24
2022-08-12T14:32:36.553Z,36.20
2022-08-12T14:33:44.728Z,36.31
2022-08-12T14:34:56.423Z,36.21
2022-08-12T14:35:56.431Z,36.16
2022-08-12T14:37:01.933Z,36.15
2022-08-12T14:38:25.915Z,36.06
2022-08-12T14:39:28.125Z,36.04